Time;durP1;ratioP1;P1;durP2;ratioP2;P2;SDS_P1;SDS_P2;PMS_P1;PMS_P2;Temp;Humidity;BMP_temperature;BMP_pressure;BME280_temperature;BME280_humidity;BME280_pressure;Samples;Min_cycle;Max_cycle;Signal;HPM_P1;HPM_P2
2022/06/23 00:02:03;;;;;;;16.45;9.77;;;;;;;22.65;68.90;99552.91;5068793;28;20628;-29
2022/06/23 00:04:38;;;;;;;20.05;10.57;;;;;;;22.85;68.44;99554.28;5052627;28;20299;-33
2022/06/23 00:07:19;;;;;;;16.67;9.95;;;;;;;22.77;68.88;99568.66;5067970;28;20407;-30
2022/06/23 00:09:44;;;;;;;16.95;10.05;;;;;;;22.64;68.85;99564.91;5068831;28;20027;-33
2022/06/23 00:12:38;;;;;;;17.20;9.75;;;;;;;22.69;68.69;99569.41;5087223;28;20490;-30
2022/06/23 00:15:04;;;;;;;16.95;10.55;;;;;;;22.32;70.11;99563.28;5065710;28;20435;-32
2022/06/23 00:17:39;;;;;;;19.52;10.10;;;;;;;22.33;71.82;99559.47;5087166;28;20085;-31
2022/06/23 00:20:31;;;;;;;18.98;10.50;;;;;;;22.63;69.69;99568.72;5087076;28;20055;-29
2022/06/23 00:23:20;;;;;;;19.52;11.32;;;;;;;22.82;69.47;99571.25;5068976;28;20032;-29
2022/06/23 00:25:56;;;;;;;17.10;10.43;;;;;;;22.08;72.77;99553.47;5087273;28;20028;-31
2022/06/23 00:28:26;;;;;;;17.05;9.90;;;;;;;22.25;71.85;99563.72;5068421;28;20032;-34
2022/06/23 00:31:00;;;;;;;15.95;10.50;;;;;;;22.51;71.13;99554.13;5068609;28;20026;-31
2022/06/23 00:33:28;;;;;;;15.98;10.02;;;;;;;21.94;73.33;99536.44;5086702;28;20054;-35
2022/06/23 00:35:56;;;;;;;17.23;10.93;;;;;;;22.32;71.54;99546.97;5086701;28;20036;-30
2022/06/23 00:38:36;;;;;;;;;;;;;;;22.20;71.53;99555.66;5069073;28;20027;-38
2022/06/23 00:41:02;;;;;;;13.95;9.70;;;;;;;22.27;71.71;99555.25;5087374;28;19907;-29
2022/06/23 00:43:29;;;;;;;16.80;10.75;;;;;;;22.09;72.35;99543.44;5068486;28;20042;-30
2022/06/23 00:46:16;;;;;;;16.45;11.20;;;;;;;22.21;71.94;99551.00;5068160;28;20054;-29
2022/06/23 00:48:48;;;;;;;16.95;10.95;;;;;;;22.12;71.13;99548.25;5068036;28;20035;-29
2022/06/23 00:51:29;;;;;;;18.52;10.20;;;;;;;21.80;72.65;99541.94;5087249;28;20041;-32
2022/06/23 00:54:21;;;;;;;17.27;10.05;;;;;;;21.95;72.98;99535.34;5068393;28;20035;-29
2022/06/23 00:57:20;;;;;;;17.33;10.55;;;;;;;21.98;72.77;99553.72;5086265;28;20039;-29
2022/06/23 01:00:13;;;;;;;18.10;10.02;;;;;;;22.16;71.76;99548.44;5051839;28;20058;-31
2022/06/23 01:02:45;;;;;;;17.10;9.73;;;;;;;21.88;71.90;99540.38;5070775;28;20036;-29
2022/06/23 01:05:17;;;;;;;19.83;9.55;;;;;;;21.91;70.99;99533.56;5068308;28;20024;-32
2022/06/23 01:07:52;;;;;;;16.38;9.35;;;;;;;22.30;69.97;99554.63;5068299;28;20036;-29
2022/06/23 01:10:20;;;;;;;17.10;10.18;;;;;;;22.21;70.24;99551.00;5068391;28;20464;-31
2022/06/23 01:13:00;;;;;;;18.27;10.52;;;;;;;22.23;70.11;99551.50;5086301;28;20068;-31
2022/06/23 01:15:31;;;;;;;17.10;9.43;;;;;;;22.22;69.67;99547.19;5068336;28;20227;-30
2022/06/23 01:17:56;;;;;;;15.82;9.25;;;;;;;22.26;69.14;99531.91;5087732;28;20036;-32
2022/06/23 01:20:43;;;;;;;14.40;10.32;;;;;;;22.56;68.36;99551.28;5090411;28;20072;-29
2022/06/23 01:23:18;;;;;;;17.80;9.95;;;;;;;22.37;69.00;99549.59;5090615;28;20020;-30
2022/06/23 01:26:15;;;;;;;18.55;10.60;;;;;;;22.20;69.98;99563.00;5071532;28;20035;-29
2022/06/23 01:28:41;;;;;;;;;;;;;;;22.10;70.33;99561.31;5072047;28;20032;-32
2022/06/23 01:31:18;;;;;;;14.48;9.77;;;;;;;22.15;69.65;99557.69;5089874;28;19915;-29
2022/06/23 01:33:53;;;;;;;19.52;10.02;;;;;;;22.17;69.89;99571.75;5090332;28;20495;-28
2022/06/23 01:36:30;;;;;;;16.70;10.25;;;;;;;22.10;69.81;99574.09;5071151;28;20401;-32
2022/06/23 01:39:01;;;;;;;15.87;10.30;;;;;;;21.61;71.66;99562.97;5071466;28;20051;-29
2022/06/23 01:41:41;;;;;;;14.93;9.15;;;;;;;21.38;72.80;99552.03;5089682;28;20024;-29
2022/06/23 01:44:18;;;;;;;14.05;10.07;;;;;;;21.68;71.66;99552.53;5089549;28;20117;-33
2022/06/23 01:46:46;;;;;;;16.73;9.55;;;;;;;21.61;71.72;99539.34;5089469;28;20502;-34
2022/06/23 01:49:26;;;;;;;16.13;9.70;;;;;;;21.85;69.88;99530.94;5071396;28;20027;-32
2022/06/23 01:51:55;;;;;;;18.05;9.63;;;;;;;21.63;70.84;99530.91;5089729;28;20058;-31
2022/06/23 01:54:20;;;;;;;14.13;9.73;;;;;;;21.70;71.72;99547.59;5070940;28;20025;-31
2022/06/23 01:56:57;;;;;;;18.88;10.05;;;;;;;21.72;71.32;99556.25;5070852;28;20032;-31
2022/06/23 01:59:32;;;;;;;16.88;9.80;;;;;;;21.79;70.62;99555.81;5070699;28;20028;-30
2022/06/23 02:02:19;;;;;;;15.82;9.85;;;;;;;21.74;70.86;99556.75;5089358;28;20024;-30
2022/06/23 02:05:27;;;;;;;20.23;9.90;;;;;;;21.69;71.05;99556.03;5088795;28;20069;-29
2022/06/23 02:08:09;;;;;;;20.02;9.77;;;;;;;21.61;70.98;99561.06;5061171;28;20100;-30
2022/06/23 02:10:47;;;;;;;16.50;9.57;;;;;;;21.34;72.67;99555.66;5070749;28;20028;-29
2022/06/23 02:13:26;;;;;;;15.82;9.65;;;;;;;21.42;72.36;99557.66;5089130;28;20085;-29
2022/06/23 02:16:11;;;;;;;17.83;9.82;;;;;;;21.44;71.70;99544.63;5070430;28;20474;-33
2022/06/23 02:18:52;;;;;;;19.42;10.15;;;;;;;21.47;71.22;99560.28;5088774;28;20050;-29
2022/06/23 02:21:25;;;;;;;13.85;8.50;;;;;;;21.52;69.81;99546.63;5088839;28;20031;-31
2022/06/23 02:24:12;;;;;;;13.68;9.30;;;;;;;21.69;70.14;99562.25;5070644;28;20494;-32
2022/06/23 02:26:52;;;;;;;16.23;9.10;;;;;;;21.56;68.84;99553.06;5070204;28;20034;-30
2022/06/23 02:29:30;;;;;;;15.77;9.60;;;;;;;21.56;68.91;99563.91;5069855;28;20043;-31
2022/06/23 02:32:01;;;;;;;16.10;9.48;;;;;;;21.46;69.79;99558.69;5070268;28;20526;-30
2022/06/23 02:34:29;;;;;;;16.17;8.65;;;;;;;21.24;70.76;99567.53;5070277;28;20044;-32
2022/06/23 02:37:02;;;;;;;14.57;9.48;;;;;;;21.40;69.41;99549.81;5070155;28;20028;-30
2022/06/23 02:39:50;;;;;;;13.75;9.20;;;;;;;21.56;68.61;99569.31;5070434;28;20036;-32
2022/06/23 02:42:34;;;;;;;21.42;9.57;;;;;;;21.44;69.25;99566.34;5070175;28;20097;-31
2022/06/23 02:45:33;;;;;;;18.27;9.90;;;;;;;21.44;68.85;99560.91;5088104;28;20040;-32
2022/06/23 02:48:21;;;;;;;18.65;9.45;;;;;;;21.34;70.06;99567.31;5070043;28;20415;-31
2022/06/23 02:51:31;;;;;;;14.48;8.98;;;;;;;21.35;68.29;99568.09;5087636;28;20457;-29
2022/06/23 02:54:32;;;;;;;15.02;8.15;;;;;;;21.39;67.11;99563.69;5005465;28;20038;-29
2022/06/23 02:57:19;;;;;;;14.05;7.50;;;;;;;21.71;65.62;99561.97;5088062;28;20107;-29
2022/06/23 02:59:54;;;;;;;15.48;7.63;;;;;;;21.54;64.35;99562.59;5069663;28;20067;-31
2022/06/23 03:02:31;;;;;;;10.18;7.00;;;;;;;21.67;63.98;99554.41;5088204;28;20070;-28
2022/06/23 03:05:19;;;;;;;11.63;7.65;;;;;;;21.64;63.67;99527.13;5069659;28;20028;-35
2022/06/23 03:08:06;;;;;;;11.45;6.53;;;;;;;21.78;63.28;99543.34;5058556;28;20032;-31
2022/06/23 03:10:43;;;;;;;10.77;6.78;;;;;;;21.56;64.61;99520.50;5069390;28;20032;-30
2022/06/23 03:13:09;;;;;;;14.90;6.97;;;;;;;21.60;64.46;99532.34;5069569;28;20043;-29
2022/06/23 03:15:50;;;;;;;11.68;6.68;;;;;;;21.85;62.60;99532.88;5069573;28;20020;-30
2022/06/23 03:18:50;;;;;;;9.82;6.30;;;;;;;21.77;62.46;99541.75;5088201;28;20500;-36
2022/06/23 03:21:31;;;;;;;14.77;6.72;;;;;;;21.55;62.54;99540.56;5066182;28;20032;-32
2022/06/23 03:24:26;;;;;;;14.73;6.63;;;;;;;21.22;65.39;99529.84;5088022;28;20028;-30
2022/06/23 03:27:01;;;;;;;14.27;6.55;;;;;;;21.41;64.75;99534.34;5068507;28;20077;-30
2022/06/23 03:29:47;;;;;;;13.32;6.50;;;;;;;21.40;64.13;99527.31;5052969;28;20034;-32
2022/06/23 03:32:21;;;;;;;11.48;6.75;;;;;;;21.55;64.39;99520.78;5069211;28;20032;-32
2022/06/23 03:35:07;;;;;;;12.60;6.65;;;;;;;21.66;63.66;99528.41;5068543;28;20038;-30
2022/06/23 03:38:17;;;;;;;12.73;6.47;;;;;;;21.54;65.95;99544.41;5068138;28;20036;-33
2022/06/23 03:43:58;;;;;;;11.88;6.53;;;;;;;21.85;64.65;99555.38;5086626;28;20522;-34
2022/06/23 03:46:31;;;;;;;10.45;6.78;;;;;;;21.83;65.52;99548.66;5085813;28;20040;-34
2022/06/23 03:49:34;;;;;;;11.65;6.60;;;;;;;21.80;65.86;99571.78;5067792;28;20047;-30
2022/06/23 03:52:04;;;;;;;11.93;6.85;;;;;;;21.90;65.16;99562.59;5087576;28;20023;-30
2022/06/23 03:54:58;;;;;;;11.63;6.43;;;;;;;22.11;63.31;99578.41;5068833;28;20035;-29
2022/06/23 03:57:23;;;;;;;11.80;6.65;;;;;;;22.24;63.45;99580.31;5087066;28;20069;-29
2022/06/23 04:00:18;;;;;;;12.57;7.20;;;;;;;22.28;63.89;99578.59;5087490;28;20138;-30
2022/06/23 04:02:48;;;;;;;14.20;7.28;;;;;;;22.08;65.08;99558.91;5087050;28;20031;-29
2022/06/23 04:05:26;;;;;;;11.82;7.13;;;;;;;22.13;65.58;99568.03;5069106;28;20020;-29
2022/06/23 04:07:57;;;;;;;14.80;8.30;;;;;;;21.98;67.11;99586.31;5068750;28;20032;-29
2022/06/23 04:10:36;;;;;;;13.57;8.77;;;;;;;22.26;67.13;99588.97;5068397;28;20028;-30
2022/06/23 04:13:34;;;;;;;39.70;10.65;;;;;;;22.22;67.65;99587.94;5068983;28;20032;-31
2022/06/23 04:16:09;;;;;;;15.00;9.32;;;;;;;22.12;68.81;99593.59;5059903;28;20400;-32
2022/06/23 04:18:40;;;;;;;16.05;9.93;;;;;;;22.28;67.50;99592.16;5086832;28;20482;-31
2022/06/23 04:21:28;;;;;;;14.38;10.15;;;;;;;22.27;68.00;99585.13;5068583;28;20028;-31
2022/06/23 04:23:58;;;;;;;13.45;10.52;;;;;;;22.22;68.00;99588.72;5068785;28;20519;-32
2022/06/23 04:26:37;;;;;;;14.60;9.52;;;;;;;22.38;67.81;99591.91;5086968;28;20024;-31
2022/06/23 04:29:16;;;;;;;15.52;10.05;;;;;;;22.36;67.09;99606.94;5086644;28;20035;-31
2022/06/23 04:31:59;;;;;;;16.27;9.93;;;;;;;22.19;67.86;99596.69;5068869;28;20031;-29
2022/06/23 04:34:48;;;;;;;15.65;9.60;;;;;;;22.46;67.67;99604.75;5068411;28;20035;-30
2022/06/23 04:37:40;;;;;;;15.35;10.40;;;;;;;22.67;66.97;99613.19;5086799;28;20036;-29
2022/06/23 04:40:27;;;;;;;19.90;11.07;;;;;;;22.69;67.04;99610.19;5068543;28;20032;-32
2022/06/23 04:43:01;;;;;;;17.03;10.73;;;;;;;22.82;67.64;99589.44;5086753;28;20066;-30
2022/06/23 04:45:38;;;;;;;15.40;10.30;;;;;;;22.53;68.16;99606.25;5068344;28;20119;-30
2022/06/23 04:48:15;;;;;;;20.48;11.68;;;;;;;22.80;70.04;99592.50;5086677;28;20032;-29
2022/06/23 04:50:53;;;;;;;16.83;11.73;;;;;;;22.95;69.87;99606.81;5068442;28;20040;-31
2022/06/23 04:53:40;;;;;;;18.45;11.55;;;;;;;22.74;70.29;99599.19;5087675;28;20024;-32
2022/06/23 04:56:13;;;;;;;17.00;10.88;;;;;;;22.89;70.03;99586.31;5072355;28;20028;-30
2022/06/23 04:58:59;;;;;;;16.33;10.70;;;;;;;23.33;67.48;99596.25;5072222;28;20110;-29
2022/06/23 05:01:34;;;;;;;14.80;10.88;;;;;;;23.67;64.68;99590.09;5072242;28;20414;-35
2022/06/23 05:04:00;;;;;;;21.48;11.05;;;;;;;23.74;66.42;99592.38;5090478;28;20350;-29
2022/06/23 05:06:31;;;;;;;20.25;12.05;;;;;;;23.96;65.51;99605.03;5071460;28;20028;-30
2022/06/23 05:09:19;;;;;;;15.70;11.48;;;;;;;24.02;64.08;99606.50;5088721;28;20032;-29
2022/06/23 05:11:50;;;;;;;23.17;16.88;;;;;;;23.93;65.44;99596.75;5071872;28;20043;-35
2022/06/23 05:14:53;;;;;;;23.13;18.38;;;;;;;24.26;62.90;99594.31;5055726;28;20901;-33
2022/06/23 05:17:34;;;;;;;17.83;13.23;;;;;;;24.40;63.08;99605.06;5090345;28;20059;-28
2022/06/23 05:20:05;;;;;;;20.88;13.13;;;;;;;24.56;63.34;99583.56;5089753;28;20499;-29
2022/06/23 05:22:40;;;;;;;19.65;11.68;;;;;;;24.43;64.15;99618.81;5090213;28;20419;-30
2022/06/23 05:25:32;;;;;;;17.70;11.00;;;;;;;24.53;63.88;99608.75;5071570;28;20063;-29
2022/06/23 05:27:58;;;;;;;15.13;11.32;;;;;;;24.74;63.34;99608.84;5080804;28;20126;-29
2022/06/23 05:30:32;;;;;;;16.75;10.68;;;;;;;24.92;63.01;99615.06;5089589;28;20069;-29
2022/06/23 05:33:12;;;;;;;14.40;9.48;;;;;;;25.01;60.01;99629.50;5071657;28;20036;-29
2022/06/23 05:35:45;;;;;;;14.65;10.00;;;;;;;25.29;60.24;99623.63;5071524;28;20028;-34
2022/06/23 05:38:30;;;;;;;18.25;9.68;;;;;;;25.46;59.76;99623.53;5089545;28;20036;-32
2022/06/23 05:41:04;;;;;;;15.65;8.38;;;;;;;25.50;59.12;99629.13;5071502;28;20514;-30
2022/06/23 05:43:34;;;;;;;12.77;7.93;;;;;;;25.60;57.48;99640.50;5071501;28;20039;-30
2022/06/23 05:46:03;;;;;;;12.65;7.85;;;;;;;25.50;56.81;99635.41;5071322;28;20051;-29
2022/06/23 05:48:35;;;;;;;20.33;8.32;;;;;;;25.59;55.57;99638.88;5089009;28;20032;-30
2022/06/23 05:51:10;;;;;;;13.15;7.57;;;;;;;25.56;54.27;99633.25;5072059;28;20036;-33
2022/06/23 05:53:35;;;;;;;18.83;8.80;;;;;;;25.68;55.27;99638.81;5071161;28;20028;-32
2022/06/23 05:56:12;;;;;;;14.48;8.85;;;;;;;25.91;53.62;99639.38;5089499;28;20035;-29
2022/06/23 05:58:46;;;;;;;21.67;13.82;;;;;;;26.04;53.90;99621.09;5070585;28;20031;-32
2022/06/23 06:01:24;;;;;;;31.88;18.45;;;;;;;26.15;54.07;99627.75;5071219;28;20040;-30
2022/06/23 06:04:03;;;;;;;11.65;7.85;;;;;;;26.24;52.46;99614.03;5070493;28;20024;-29
2022/06/23 06:06:30;;;;;;;10.95;7.70;;;;;;;26.57;51.44;99632.38;5089042;28;20086;-29
2022/06/23 06:11:52;;;;;;;14.60;8.45;;;;;;;26.33;52.09;99617.47;5089351;28;20051;-33
2022/06/23 06:14:23;;;;;;;12.40;7.18;;;;;;;26.45;50.94;99625.72;5070920;28;20047;-32
2022/06/23 06:16:49;;;;;;;13.25;7.82;;;;;;;26.40;50.94;99620.47;5070801;28;20494;-37
2022/06/23 06:19:17;;;;;;;11.27;6.40;;;;;;;26.67;51.06;99632.00;5089129;28;20024;-30
2022/06/23 06:21:44;;;;;;;12.05;7.32;;;;;;;26.73;48.28;99627.91;5070575;28;20024;-30
2022/06/23 06:24:17;;;;;;;10.02;6.82;;;;;;;26.50;48.97;99621.19;5070674;28;20031;-32
2022/06/23 06:26:47;;;;;;;11.50;6.97;;;;;;;26.79;49.98;99612.88;5070435;28;20122;-30
2022/06/23 06:29:26;;;;;;;11.18;6.50;;;;;;;27.41;49.16;99615.69;5070152;28;20494;-34
2022/06/23 06:32:18;;;;;;;12.15;7.07;;;;;;;27.24;48.45;99622.19;5070319;28;20039;-32
2022/06/23 06:34:52;;;;;;;15.10;7.40;;;;;;;27.61;49.39;99609.28;5067293;28;20040;-31
2022/06/23 06:37:19;;;;;;;14.80;7.22;;;;;;;27.99;45.66;99610.84;5070220;28;20457;-31
2022/06/23 06:39:53;;;;;;;18.25;7.53;;;;;;;27.81;46.69;99599.31;5070476;28;20028;-32
2022/06/23 06:42:22;;;;;;;11.85;6.43;;;;;;;28.18;48.00;99623.91;5070047;28;20032;-31
2022/06/23 06:44:51;;;;;;;11.07;7.07;;;;;;;28.14;46.18;99619.47;5070100;28;20036;-32
2022/06/23 06:47:21;;;;;;;11.95;6.38;;;;;;;27.88;44.76;99623.41;5088208;28;20530;-32
2022/06/23 06:49:46;;;;;;;11.13;6.35;;;;;;;28.13;48.11;99624.13;5070038;28;20031;-31
2022/06/23 06:52:13;;;;;;;12.93;6.95;;;;;;;28.19;45.10;99627.44;5069988;28;20032;-35
2022/06/23 06:54:45;;;;;;;12.48;6.47;;;;;;;27.87;45.52;99623.75;5069688;28;20024;-34
2022/06/23 06:57:22;;;;;;;11.82;6.20;;;;;;;27.54;46.40;99628.22;5088060;28;20040;-30
2022/06/23 06:59:57;;;;;;;9.82;5.75;;;;;;;27.49;45.21;99631.19;5070067;28;20031;-29
2022/06/23 07:02:30;;;;;;;10.50;6.00;;;;;;;27.47;46.16;99663.59;5069429;28;20039;-35
2022/06/23 07:05:02;;;;;;;9.57;5.55;;;;;;;27.47;47.46;99662.81;5069826;28;20055;-29
2022/06/23 07:07:37;;;;;;;13.73;6.47;;;;;;;27.29;47.45;99668.50;5069431;28;20043;-29
2022/06/23 07:10:21;;;;;;;14.20;6.72;;;;;;;27.29;49.65;99684.13;5088194;28;20487;-31
2022/06/23 07:12:55;;;;;;;9.73;6.45;;;;;;;27.28;48.90;99688.81;5069314;28;20557;-31
2022/06/23 07:15:35;;;;;;;11.07;5.95;;;;;;;27.46;50.47;99719.50;5069389;28;20020;-29
2022/06/23 07:18:22;;;;;;;14.65;6.75;;;;;;;27.35;48.86;99738.31;5069165;28;20800;-30
2022/06/23 07:21:00;;;;;;;18.95;6.60;;;;;;;27.29;49.62;99760.78;5087666;28;20036;-33
2022/06/23 07:23:34;;;;;;;34.25;8.05;;;;;;;27.16;47.92;99774.41;5069382;28;20036;-34
2022/06/23 07:26:09;;;;;;;12.80;6.25;;;;;;;26.89;47.89;99791.41;5087483;28;20024;-30
2022/06/23 07:28:44;;;;;;;13.45;6.68;;;;;;;26.75;48.54;99808.09;5068940;28;20032;-32
2022/06/23 07:31:17;;;;;;;17.63;6.80;;;;;;;26.47;48.62;99841.41;5069576;28;20051;-34
2022/06/23 07:33:50;;;;;;;10.02;5.97;;;;;;;26.41;49.04;99854.44;5069355;28;20119;-30
2022/06/23 07:36:28;;;;;;;16.77;6.65;;;;;;;26.29;49.39;99859.03;5069271;28;20023;-30
2022/06/23 07:39:02;;;;;;;9.02;6.07;;;;;;;26.24;50.20;99854.56;5069034;28;20200;-32
2022/06/23 07:41:35;;;;;;;10.40;6.05;;;;;;;26.51;51.00;99866.16;5069246;28;20032;-29
2022/06/23 07:44:07;;;;;;;12.00;5.78;;;;;;;26.52;50.30;99878.69;5069260;28;20028;-29
2022/06/23 07:46:36;;;;;;;14.75;6.65;;;;;;;26.43;49.13;99874.06;5086713;28;20207;-30
2022/06/23 07:49:02;;;;;;;10.05;5.70;;;;;;;26.32;49.92;99883.00;5068916;28;20056;-36
2022/06/23 07:51:28;;;;;;;8.63;5.18;;;;;;;26.10;48.34;99865.72;5068664;28;20028;-30
2022/06/23 07:53:56;;;;;;;12.68;5.78;;;;;;;25.97;49.24;99840.22;5087230;28;20073;-29
2022/06/23 07:56:24;;;;;;;16.42;5.90;;;;;;;25.43;53.48;99793.44;5069059;28;20455;-33
2022/06/23 07:58:54;;;;;;;11.73;6.50;;;;;;;25.09;59.11;99783.34;5068898;28;20067;-35
2022/06/23 08:01:31;;;;;;;13.07;6.55;;;;;;;24.69;62.64;99767.97;5068805;28;20107;-29
2022/06/23 08:04:17;;;;;;;10.52;6.20;;;;;;;24.61;62.96;99746.97;5068826;28;20032;-33
2022/06/23 08:06:44;;;;;;;16.67;7.78;;;;;;;24.22;66.16;99735.03;5086768;28;20028;-30
2022/06/23 08:09:24;;;;;;;15.27;7.13;;;;;;;23.82;66.14;99732.38;5068561;28;20035;-30
2022/06/23 08:14:40;;;;;;;15.75;8.90;;;;;;;23.14;71.81;99734.44;5087067;28;20515;-34
2022/06/23 08:17:17;;;;;;;15.40;8.82;;;;;;;23.12;74.97;99732.03;5068728;28;20036;-35
2022/06/23 08:19:57;;;;;;;12.77;8.32;;;;;;;23.19;73.29;99732.41;5086834;28;20411;-29
2022/06/23 08:22:36;;;;;;;15.35;8.13;;;;;;;23.25;73.00;99714.81;5068419;28;20788;-31
2022/06/23 08:25:06;;;;;;;13.00;7.38;;;;;;;23.36;70.22;99752.66;5086783;28;20531;-34
2022/06/23 08:27:33;;;;;;;14.13;7.40;;;;;;;23.39;72.10;99768.34;5069397;28;20140;-30
2022/06/23 08:30:03;;;;;;;12.27;7.63;;;;;;;23.03;74.43;99755.66;5072423;28;20040;-31
2022/06/23 08:32:30;;;;;;;11.45;6.80;;;;;;;22.84;74.37;99753.88;5090765;28;20036;-29
2022/06/23 08:35:04;;;;;;;10.83;6.77;;;;;;;22.72;74.45;99737.31;5072299;28;20526;-31
2022/06/23 08:37:45;;;;;;;8.70;6.63;;;;;;;22.51;73.12;99725.31;5072712;28;20031;-30
2022/06/23 08:40:25;;;;;;;10.65;5.78;;;;;;;22.47;74.34;99744.13;5072476;28;20028;-30
2022/06/23 08:43:13;;;;;;;12.80;6.22;;;;;;;22.55;73.21;99762.44;5072561;28;20036;-34
2022/06/23 08:45:40;;;;;;;;;;;;;;;23.51;74.56;99789.53;5091158;28;20089;-31
2022/06/23 08:48:18;;;;;;;13.30;6.03;;;;;;;23.08;70.09;99817.28;5072418;28;19945;-31
2022/06/23 08:50:54;;;;;;;11.80;6.93;;;;;;;22.90;75.28;99813.56;5072063;28;20146;-29
2022/06/23 08:53:44;;;;;;;11.23;6.10;;;;;;;22.67;73.51;99862.47;5072196;28;20024;-31
2022/06/23 08:56:15;;;;;;;11.63;6.95;;;;;;;22.23;78.17;99885.59;5091017;28;20020;-29
2022/06/23 08:59:10;;;;;;;14.50;7.30;;;;;;;21.89;78.11;99875.09;5090636;28;20043;-32
2022/06/23 09:02:04;;;;;;;14.05;7.78;;;;;;;21.98;80.74;99884.16;5072563;28;20626;-33
2022/06/23 09:05:11;;;;;;;9.38;5.28;;;;;;;21.69;72.85;99849.91;5089572;28;20552;-31
2022/06/23 09:07:53;;;;;;;15.38;7.80;;;;;;;22.26;77.81;99827.97;5072055;28;20119;-30
2022/06/23 09:10:47;;;;;;;11.18;7.05;;;;;;;22.50;76.60;99805.22;5071889;28;20032;-35
2022/06/23 09:13:43;;;;;;;10.95;6.60;;;;;;;22.21;78.42;99817.19;5090438;28;20514;-30
2022/06/23 09:16:36;;;;;;;14.32;7.55;;;;;;;22.29;80.73;99791.25;5090150;28;20118;-33
2022/06/23 09:19:22;;;;;;;14.52;7.95;;;;;;;22.05;80.55;99803.13;5071851;28;20024;-34
2022/06/23 09:22:15;;;;;;;15.60;8.02;;;;;;;22.05;80.91;99841.13;5090248;28;20032;-31
2022/06/23 09:24:58;;;;;;;12.25;8.02;;;;;;;21.89;80.45;99854.19;5071367;28;20036;-31
2022/06/23 10:38:12;;;;;;;13.00;7.18;;;;;;;22.76;85.27;99745.66;4836434;27;8342562;-30
2022/06/23 10:40:51;;;;;;;12.05;7.03;;;;;;;23.45;82.59;99724.34;5104669;28;20032;-31
2022/06/23 10:43:49;;;;;;;10.68;7.45;;;;;;;24.12;80.87;99738.84;5103479;28;20418;-30
2022/06/23 10:46:20;;;;;;;12.25;7.20;;;;;;;24.79;76.74;99734.94;5072899;28;20772;-29
2022/06/23 10:49:06;;;;;;;8.98;5.82;;;;;;;24.79;76.91;99737.66;5104413;28;20020;-30
2022/06/23 10:51:47;;;;;;;8.02;5.22;;;;;;;24.98;71.03;99714.69;5104486;28;20032;-38
2022/06/23 10:54:47;;;;;;;11.23;5.90;;;;;;;25.60;71.13;99725.13;5102789;28;20479;-29
2022/06/23 10:57:50;;;;;;;8.50;5.00;;;;;;;26.18;68.44;99730.94;5104138;28;20478;-29
2022/06/23 11:00:57;;;;;;;10.77;5.50;;;;;;;26.40;62.95;99727.09;5104058;28;20036;-32
2022/06/23 11:03:41;;;;;;;8.15;5.60;;;;;;;26.69;65.69;99722.72;5102305;28;20032;-34
2022/06/23 11:06:13;;;;;;;9.10;6.18;;;;;;;26.46;67.27;99703.88;5104103;28;20035;-29
2022/06/23 11:08:48;;;;;;;11.52;6.30;;;;;;;25.75;67.58;99706.59;5102545;28;20027;-29
2022/06/23 11:11:42;;;;;;;8.70;5.55;;;;;;;25.86;62.78;99696.88;5103522;28;20028;-30
2022/06/23 11:14:27;;;;;;;10.13;5.45;;;;;;;25.31;66.17;99692.31;5102083;28;20028;-29
2022/06/23 11:17:03;;;;;;;8.00;6.00;;;;;;;25.63;64.49;99697.16;5102284;28;20399;-30
2022/06/23 11:19:43;;;;;;;8.73;6.20;;;;;;;26.03;68.60;99685.06;5102102;28;20054;-30
2022/06/23 11:22:14;;;;;;;8.43;6.35;;;;;;;26.54;61.88;99693.19;5103471;28;20042;-29
2022/06/23 11:24:59;;;;;;;10.00;6.57;;;;;;;26.74;66.00;99697.88;5103344;28;20166;-30
2022/06/23 11:27:58;;;;;;;10.27;5.18;;;;;;;27.09;61.77;99696.72;5103375;28;20039;-31
2022/06/23 11:30:54;;;;;;;10.15;5.25;;;;;;;27.13;55.80;99692.97;5103217;28;20031;-30
2022/06/23 11:33:38;;;;;;;9.40;5.32;;;;;;;27.57;57.45;99687.81;5093709;28;20047;-30
2022/06/23 11:36:37;;;;;;;8.43;5.45;;;;;;;28.04;56.11;99689.28;5096507;28;20103;-30
2022/06/23 11:39:14;;;;;;;9.02;4.63;;;;;;;28.11;52.47;99691.44;5084581;28;20032;-33
2022/06/23 11:41:58;;;;;;;;;;;;;;;28.22;57.31;99689.81;5084751;28;20376;-30
2022/06/23 11:44:51;;;;;;;7.90;4.85;;;;;;;27.73;52.74;99665.22;5103041;28;19965;-30
2022/06/23 11:47:29;;;;;;;10.10;4.72;;;;;;;27.81;52.70;99678.00;5098652;28;20028;-30
2022/06/23 11:50:16;;;;;;;8.02;5.28;;;;;;;28.20;56.46;99673.72;5070693;28;20578;-31
2022/06/23 11:52:53;;;;;;;;;;;;;;;27.95;51.74;99672.97;5089977;28;20028;-33
2022/06/23 11:55:51;;;;;;;10.65;4.93;;;;;;;27.99;55.56;99676.63;5088908;28;20387;-33
2022/06/23 11:58:25;;;;;;;9.05;4.88;;;;;;;28.12;53.26;99668.38;5032695;28;20076;-31
2022/06/23 12:00:57;;;;;;;11.68;5.75;;;;;;;28.28;55.12;99668.41;5089030;28;20040;-32
2022/06/23 12:03:46;;;;;;;9.90;5.32;;;;;;;28.62;50.74;99664.31;5070631;28;20035;-35
2022/06/23 12:06:42;;;;;;;7.70;5.15;;;;;;;29.38;51.90;99653.34;5070302;28;20067;-30
2022/06/23 12:09:26;;;;;;;7.45;4.68;;;;;;;29.82;50.11;99664.22;5070692;28;20411;-30
2022/06/23 12:11:51;;;;;;;8.57;4.60;;;;;;;29.61;46.60;99659.78;5088567;28;20040;-30
2022/06/23 12:14:17;;;;;;;10.32;4.72;;;;;;;29.40;46.82;99664.78;5088934;28;20027;-31
2022/06/23 12:16:57;;;;;;;9.60;5.30;;;;;;;29.70;50.49;99642.31;5069997;28;20027;-35
2022/06/23 12:19:34;;;;;;;8.70;5.15;;;;;;;30.10;47.93;99665.97;5088613;28;20063;-36
2022/06/23 12:22:22;;;;;;;11.23;4.93;;;;;;;30.42;48.03;99662.00;5088310;28;20016;-31
2022/06/23 12:25:00;;;;;;;8.02;4.50;;;;;;;30.68;47.57;99655.00;5070033;28;20176;-35
2022/06/23 12:27:37;;;;;;;9.45;4.80;;;;;;;30.81;45.72;99659.19;5070080;28;20892;-30
2022/06/23 12:30:05;;;;;;;7.88;5.00;;;;;;;30.72;45.12;99664.13;5088224;28;20032;-31
2022/06/23 12:32:31;;;;;;;;;;;;;;;30.73;48.92;99660.22;5070148;28;20832;-33
2022/06/23 12:35:24;;;;;;;7.18;4.65;;;;;;;30.86;48.66;99671.06;5069636;28;19912;-30
2022/06/23 12:37:57;;;;;;;8.43;5.00;;;;;;;31.03;47.36;99656.84;5069347;28;20047;-37
2022/06/23 12:40:27;;;;;;;9.10;5.45;;;;;;;31.70;45.18;99666.59;5069587;28;20080;-36
2022/06/23 12:43:08;;;;;;;10.57;6.05;;;;;;;30.36;50.68;99644.19;5069741;28;20554;-30
2022/06/23 12:45:58;;;;;;;9.90;5.53;;;;;;;30.27;47.16;99637.28;5069031;28;20036;-35
2022/06/23 12:48:49;;;;;;;8.02;5.38;;;;;;;29.86;50.08;99651.34;5069540;28;20042;-31
2022/06/23 12:51:33;;;;;;;11.38;5.78;;;;;;;29.73;52.03;99655.34;5024701;28;20491;-32
2022/06/23 12:54:04;;;;;;;10.35;5.38;;;;;;;30.50;47.24;99662.91;5087482;28;20517;-39
2022/06/23 12:57:07;;;;;;;9.57;5.60;;;;;;;30.36;48.00;99668.94;5087674;28;20031;-32
2022/06/23 12:59:52;;;;;;;8.63;4.97;;;;;;;29.99;49.94;99657.50;5068006;28;20403;-30
2022/06/23 13:02:40;;;;;;;9.68;5.15;;;;;;;31.12;46.24;99660.16;5068880;28;20707;-32
2022/06/23 13:05:26;;;;;;;8.57;4.40;;;;;;;31.14;44.44;99668.84;5087457;28;20507;-32
2022/06/23 13:08:03;;;;;;;7.53;4.80;;;;;;;31.79;41.98;99678.13;5068777;28;20510;-32
2022/06/23 13:10:46;;;;;;;9.75;5.18;;;;;;;31.52;41.99;99664.34;5087111;28;20131;-34
2022/06/23 13:14:01;;;;;;;8.98;4.60;;;;;;;30.92;41.90;99672.38;5068959;28;20039;-31
2022/06/23 13:16:37;;;;;;;9.45;4.90;;;;;;;30.93;46.72;99651.94;5081986;28;20090;-31
2022/06/23 13:19:14;;;;;;;7.82;5.40;;;;;;;31.13;47.80;99667.22;5086804;28;20550;-33
2022/06/23 13:21:40;;;;;;;7.22;4.50;;;;;;;31.40;45.98;99665.31;5068614;28;20481;-32
2022/06/23 13:24:21;;;;;;;10.52;5.07;;;;;;;29.86;49.23;99684.34;5087061;28;20067;-32
2022/06/23 13:27:06;;;;;;;8.45;5.25;;;;;;;29.40;48.28;99651.03;5068756;28;20032;-31
2022/06/23 13:29:47;;;;;;;9.02;5.50;;;;;;;29.20;52.79;99678.44;5068243;28;20040;-32
2022/06/23 13:32:31;;;;;;;8.55;4.90;;;;;;;29.03;51.11;99668.56;5068598;28;20051;-29
2022/06/23 13:35:10;;;;;;;6.65;4.60;;;;;;;28.87;49.87;99672.41;5086965;28;20038;-30
2022/06/23 13:37:41;;;;;;;9.90;5.13;;;;;;;28.10;53.62;99674.19;5067860;28;20108;-32
2022/06/23 13:40:32;;;;;;;7.30;5.13;;;;;;;27.60;54.43;99678.09;5068749;28;20040;-33
2022/06/23 13:43:05;;;;;;;11.27;4.80;;;;;;;27.92;53.65;99668.16;5086762;28;20032;-31